Time;durP1;ratioP1;P1;durP2;ratioP2;P2;SDS_P1;SDS_P2;PMS_P1;PMS_P2;Temp;Humidity;BMP_temperature;BMP_pressure;BME280_temperature;BME280_humidity;BME280_pressure;Samples;Min_cycle;Max_cycle;Signal;HPM_P1;HPM_P2
2022/08/26 00:00:28;;;;;;;3.35;1.40;;;;;;;;;;5057232;28;20068;-76
2022/08/26 00:02:54;;;;;;;3.25;1.40;;;;;;;;;;5060472;28;20029;-76
2022/08/26 00:05:20;;;;;;;3.28;1.55;;;;;;;;;;5053172;28;20057;-76
2022/08/26 00:07:46;;;;;;;4.47;1.60;;;;;;;;;;5054547;28;20462;-76
2022/08/26 00:10:13;;;;;;;3.15;1.20;;;;;;;;;;5059089;28;20036;-76
2022/08/26 00:12:39;;;;;;;5.38;1.30;;;;;;;;;;5061459;28;20126;-76
2022/08/26 00:15:06;;;;;;;3.28;1.52;;;;;;;;;;5058421;28;20043;-76
2022/08/26 00:17:33;;;;;;;4.45;1.42;;;;;;;;;;5055779;28;20041;-76
2022/08/26 00:19:59;;;;;;;2.42;1.33;;;;;;;;;;5051301;28;20029;-76
2022/08/26 00:22:25;;;;;;;2.85;1.25;;;;;;;;;;5067665;28;20028;-76
2022/08/26 00:24:52;;;;;;;3.25;1.30;;;;;;;;;;5054659;28;20029;-75
2022/08/26 00:27:18;;;;;;;8.10;1.60;;;;;;;;;;5055337;28;20466;-76
2022/08/26 00:29:44;;;;;;;3.90;1.20;;;;;;;;;;5057426;28;20032;-75
2022/08/26 00:32:11;;;;;;;4.15;1.65;;;;;;;;;;5056081;28;20147;-76
2022/08/26 00:34:38;;;;;;;3.65;1.70;;;;;;;;;;5053460;28;20037;-76
2022/08/26 00:37:04;;;;;;;4.95;1.27;;;;;;;;;;5059724;28;20043;-76
2022/08/26 00:39:31;;;;;;;7.25;1.60;;;;;;;;;;5056703;28;20474;-76
2022/08/26 00:41:57;;;;;;;3.15;1.33;;;;;;;;;;5062472;28;20440;-76
2022/08/26 00:44:23;;;;;;;3.30;1.50;;;;;;;;;;5057866;28;20535;-76
2022/08/26 00:46:52;;;;;;;4.78;1.25;;;;;;;;;;5055165;28;20113;-76
2022/08/26 00:49:30;;;;;;;3.45;1.48;;;;;;;;;;5058606;28;20046;-76
2022/08/26 00:51:58;;;;;;;8.70;1.52;;;;;;;;;;5053340;28;20036;-76
2022/08/26 00:54:26;;;;;;;4.90;1.35;;;;;;;;;;5055535;28;20036;-76
2022/08/26 00:56:57;;;;;;;4.28;1.27;;;;;;;;;;5056777;28;20114;-76
2022/08/26 00:59:25;;;;;;;3.95;1.42;;;;;;;;;;5060597;28;20028;-75
2022/08/26 01:01:51;;;;;;;5.07;1.63;;;;;;;;;;5049027;28;20029;-75
2022/08/26 01:04:18;;;;;;;5.75;1.85;;;;;;;;;;5054869;28;20515;-76
2022/08/26 01:06:45;;;;;;;5.28;1.65;;;;;;;;;;5056048;28;20025;-75
2022/08/26 01:09:12;;;;;;;3.78;1.80;;;;;;;;;;5060353;28;20067;-75
2022/08/26 01:11:38;;;;;;;6.25;1.50;;;;;;;;;;5052697;28;20032;-76
2022/08/26 01:14:06;;;;;;;3.92;1.67;;;;;;;;;;5057178;28;20033;-76
2022/08/26 01:16:32;;;;;;;3.55;1.90;;;;;;;;;;5054940;28;20572;-76
2022/08/26 01:19:02;;;;;;;3.38;1.52;;;;;;;;;;5057363;28;20059;-75
2022/08/26 01:21:30;;;;;;;4.80;1.60;;;;;;;;;;5059739;28;20829;-75
2022/08/26 01:23:57;;;;;;;5.75;1.50;;;;;;;;;;5052466;28;20035;-76
2022/08/26 01:26:31;;;;;;;6.65;1.50;;;;;;;;;;5055311;28;20072;-76
2022/08/26 01:28:59;;;;;;;4.43;1.70;;;;;;;;;;5056963;28;20032;-76
2022/08/26 01:31:27;;;;;;;4.38;1.70;;;;;;;;;;5060136;28;20081;-75
2022/08/26 01:34:06;;;;;;;4.47;1.67;;;;;;;;;;5056508;28;20040;-76
2022/08/26 01:36:32;;;;;;;6.13;1.60;;;;;;;;;;5052282;28;20028;-76
2022/08/26 01:38:58;;;;;;;6.32;1.88;;;;;;;;;;5055751;28;20116;-76
2022/08/26 01:41:25;;;;;;;7.30;1.90;;;;;;;;;;5056175;28;20055;-76
2022/08/26 01:43:53;;;;;;;7.05;1.77;;;;;;;;;;5049594;28;20029;-76
2022/08/26 01:46:20;;;;;;;3.72;1.90;;;;;;;;;;5056952;28;20033;-76
2022/08/26 01:48:46;;;;;;;3.72;1.63;;;;;;;;;;5055003;28;20025;-76
2022/08/26 01:51:12;;;;;;;2.95;1.40;;;;;;;;;;5061271;28;20033;-76
2022/08/26 01:53:39;;;;;;;4.93;1.98;;;;;;;;;;5058023;28;20041;-76
2022/08/26 01:56:07;;;;;;;5.85;1.80;;;;;;;;;;5059093;28;20079;-76
2022/08/26 01:58:39;;;;;;;5.80;2.15;;;;;;;;;;5051820;28;20075;-75
2022/08/26 02:01:05;;;;;;;;;;;;;;;;;;5056415;28;20120;-76
2022/08/26 02:03:32;;;;;;;3.35;1.50;;;;;;;;;;5055813;28;19924;-76
2022/08/26 02:05:59;;;;;;;6.07;1.70;;;;;;;;;;5051497;28;20048;-76
2022/08/26 02:08:30;;;;;;;3.97;1.60;;;;;;;;;;5053738;28;20025;-76
2022/08/26 02:10:57;;;;;;;6.28;3.20;;;;;;;;;;5050799;28;20070;-76
2022/08/26 02:13:24;;;;;;;4.85;2.80;;;;;;;;;;5058470;28;20033;-76
2022/08/26 02:15:50;;;;;;;4.55;2.10;;;;;;;;;;5063682;28;20559;-76
2022/08/26 02:18:17;;;;;;;5.15;2.00;;;;;;;;;;5058654;28;20537;-76
2022/08/26 02:20:43;;;;;;;4.82;1.90;;;;;;;;;;5052586;28;20208;-75
2022/08/26 02:23:09;;;;;;;2.92;1.55;;;;;;;;;;5049045;28;20128;-76
2022/08/26 02:25:52;;;;;;;3.35;1.80;;;;;;;;;;5060218;28;20040;-76
2022/08/26 02:28:18;;;;;;;5.43;1.48;;;;;;;;;;5055540;28;20049;-76
2022/08/26 02:30:45;;;;;;;4.05;1.60;;;;;;;;;;5060027;28;20052;-76
2022/08/26 02:33:12;;;;;;;5.72;2.25;;;;;;;;;;5060037;28;20028;-76
2022/08/26 02:35:38;;;;;;;3.90;1.65;;;;;;;;;;5054938;28;20037;-76
2022/08/26 02:38:07;;;;;;;5.55;1.77;;;;;;;;;;5052326;28;20033;-75
2022/08/26 02:40:35;;;;;;;2.50;1.42;;;;;;;;;;5051365;28;20048;-76
2022/08/26 02:43:01;;;;;;;3.80;1.60;;;;;;;;;;5056602;28;20031;-76
2022/08/26 02:45:27;;;;;;;3.00;1.45;;;;;;;;;;5056351;28;20082;-76
2022/08/26 02:47:55;;;;;;;2.50;1.40;;;;;;;;;;5061573;28;20066;-76
2022/08/26 02:50:22;;;;;;;7.70;2.47;;;;;;;;;;5057895;28;20044;-76
2022/08/26 02:52:48;;;;;;;4.80;1.73;;;;;;;;;;5055322;28;20040;-75
2022/08/26 02:55:14;;;;;;;4.63;1.67;;;;;;;;;;5058637;28;20036;-75
2022/08/26 02:57:40;;;;;;;4.82;1.73;;;;;;;;;;5062085;28;20033;-76
2022/08/26 03:00:07;;;;;;;6.20;1.88;;;;;;;;;;5061482;28;20458;-76
2022/08/26 03:02:33;;;;;;;3.70;1.65;;;;;;;;;;5062367;28;20635;-75
2022/08/26 03:04:59;;;;;;;6.97;1.65;;;;;;;;;;5058981;28;20033;-76
2022/08/26 03:07:25;;;;;;;4.40;1.80;;;;;;;;;;5060479;28;20058;-76
2022/08/26 03:09:51;;;;;;;4.80;2.10;;;;;;;;;;5059959;28;20045;-76
2022/08/26 03:12:19;;;;;;;3.25;1.50;;;;;;;;;;5057886;28;20025;-76
2022/08/26 03:14:45;;;;;;;5.72;2.05;;;;;;;;;;5064647;28;20615;-76
2022/08/26 03:17:11;;;;;;;4.80;2.15;;;;;;;;;;5063428;28;20036;-75
2022/08/26 03:19:37;;;;;;;6.03;2.03;;;;;;;;;;5056711;28;20715;-75
2022/08/26 03:22:03;;;;;;;3.17;1.60;;;;;;;;;;5064067;28;20044;-75
2022/08/26 03:24:29;;;;;;;4.72;2.03;;;;;;;;;;5065074;28;20037;-75
2022/08/26 03:26:56;;;;;;;4.78;1.70;;;;;;;;;;5060888;28;20050;-75
2022/08/26 03:32:07;;;;;;;6.50;1.65;;;;;;;;;;5060085;28;20087;-75
2022/08/26 03:34:34;;;;;;;9.15;1.80;;;;;;;;;;5057439;28;20068;-76
2022/08/26 03:37:00;;;;;;;5.00;2.28;;;;;;;;;;5066031;28;20132;-76
2022/08/26 03:39:26;;;;;;;5.22;1.50;;;;;;;;;;5062934;28;20028;-76
2022/08/26 03:41:52;;;;;;;5.43;2.00;;;;;;;;;;5066771;28;20024;-76
2022/08/26 03:44:18;;;;;;;3.63;1.65;;;;;;;;;;5058582;28;20024;-76
2022/08/26 03:46:44;;;;;;;6.60;2.00;;;;;;;;;;5060200;28;20447;-76
2022/08/26 03:49:10;;;;;;;6.00;1.95;;;;;;;;;;5059123;28;20029;-76
2022/08/26 03:51:36;;;;;;;4.00;1.92;;;;;;;;;;5058438;28;20055;-76
2022/08/26 03:54:03;;;;;;;4.78;1.63;;;;;;;;;;5064994;28;20043;-76
2022/08/26 03:56:32;;;;;;;9.80;2.10;;;;;;;;;;5062867;28;20071;-76
2022/08/26 03:58:58;;;;;;;4.30;2.13;;;;;;;;;;5063056;28;20032;-76
2022/08/26 04:01:24;;;;;;;8.82;2.03;;;;;;;;;;5065107;28;20072;-76
2022/08/26 04:03:56;;;;;;;6.63;2.25;;;;;;;;;;5060190;28;20031;-76
2022/08/26 04:06:22;;;;;;;7.40;2.28;;;;;;;;;;5051355;28;20478;-76
2022/08/26 04:08:49;;;;;;;4.72;2.20;;;;;;;;;;5057396;28;20026;-76
2022/08/26 04:11:19;;;;;;;8.50;2.45;;;;;;;;;;5056351;28;20044;-75
2022/08/26 04:13:45;;;;;;;7.03;2.20;;;;;;;;;;5055870;28;20021;-76
2022/08/26 04:16:11;;;;;;;8.32;2.28;;;;;;;;;;5053282;28;20052;-76
2022/08/26 04:18:38;;;;;;;6.20;1.90;;;;;;;;;;5058676;28;20094;-76
2022/08/26 04:21:05;;;;;;;5.32;2.03;;;;;;;;;;5059655;28;20029;-76
2022/08/26 04:23:31;;;;;;;5.78;2.28;;;;;;;;;;5066270;28;20033;-76
2022/08/26 04:25:57;;;;;;;6.70;2.20;;;;;;;;;;5057690;28;20796;-76
2022/08/26 04:28:23;;;;;;;6.57;1.90;;;;;;;;;;5060830;28;20028;-76
2022/08/26 04:30:49;;;;;;;4.70;1.80;;;;;;;;;;5056336;28;20036;-76
2022/08/26 04:33:16;;;;;;;4.45;1.88;;;;;;;;;;5058794;28;20083;-76
2022/08/26 04:35:42;;;;;;;5.75;2.08;;;;;;;;;;5059619;28;20048;-75
2022/08/26 04:38:09;;;;;;;6.05;2.10;;;;;;;;;;5063295;28;20028;-76
2022/08/26 04:40:35;;;;;;;5.28;2.15;;;;;;;;;;5054772;28;20057;-75
2022/08/26 04:43:01;;;;;;;7.63;2.28;;;;;;;;;;5057684;28;20025;-75
2022/08/26 04:45:27;;;;;;;9.77;2.78;;;;;;;;;;5055470;28;20080;-76
2022/08/26 04:47:55;;;;;;;6.63;2.72;;;;;;;;;;5058843;28;20021;-76
2022/08/26 04:50:22;;;;;;;11.23;2.80;;;;;;;;;;5063944;28;20456;-76
2022/08/26 04:52:48;;;;;;;4.43;2.13;;;;;;;;;;5060109;28;20020;-76
2022/08/26 04:55:14;;;;;;;8.82;2.25;;;;;;;;;;5060427;28;20040;-76
2022/08/26 04:57:40;;;;;;;4.00;2.42;;;;;;;;;;5059655;28;20039;-76
2022/08/26 05:00:09;;;;;;;4.18;2.08;;;;;;;;;;5054173;28;20036;-76
2022/08/26 05:02:35;;;;;;;8.20;2.25;;;;;;;;;;5058172;28;20031;-76
2022/08/26 05:05:01;;;;;;;6.15;2.35;;;;;;;;;;5054571;28;20043;-77
2022/08/26 05:07:27;;;;;;;5.25;2.10;;;;;;;;;;5048602;28;20029;-76
2022/08/26 05:09:53;;;;;;;8.20;2.20;;;;;;;;;;5054730;28;20039;-76
2022/08/26 05:12:19;;;;;;;5.55;2.30;;;;;;;;;;5057236;28;20366;-76
2022/08/26 05:14:45;;;;;;;7.25;2.53;;;;;;;;;;5053627;28;20082;-76
2022/08/26 05:17:11;;;;;;;6.28;2.38;;;;;;;;;;5054247;28;20033;-76
2022/08/26 05:19:37;;;;;;;8.18;2.70;;;;;;;;;;5058046;28;20047;-76
2022/08/26 05:22:04;;;;;;;8.82;2.92;;;;;;;;;;5058415;28;20370;-76
2022/08/26 05:24:30;;;;;;;9.18;2.97;;;;;;;;;;5067541;28;20043;-76
2022/08/26 05:26:56;;;;;;;15.75;8.60;;;;;;;;;;5055814;28;20032;-76
2022/08/26 05:29:23;;;;;;;32.00;20.60;;;;;;;;;;5049876;28;20363;-77
2022/08/26 05:31:50;;;;;;;33.63;19.88;;;;;;;;;;5055173;28;20029;-77
2022/08/26 05:34:16;;;;;;;27.23;15.13;;;;;;;;;;5051905;28;20024;-76
2022/08/26 05:36:42;;;;;;;28.08;16.58;;;;;;;;;;5058654;28;20495;-77
2022/08/26 05:39:08;;;;;;;19.60;11.85;;;;;;;;;;5056886;28;20028;-76
2022/08/26 05:41:37;;;;;;;13.85;6.53;;;;;;;;;;5054190;28;20049;-76
2022/08/26 05:44:04;;;;;;;10.43;4.85;;;;;;;;;;5053106;28;20374;-76
2022/08/26 05:46:30;;;;;;;9.00;3.55;;;;;;;;;;5051597;28;20044;-77
2022/08/26 05:48:57;;;;;;;7.90;3.53;;;;;;;;;;5058410;28;20025;-76
2022/08/26 05:51:23;;;;;;;8.80;3.50;;;;;;;;;;5050858;28;20036;-76
2022/08/26 05:53:50;;;;;;;12.50;4.00;;;;;;;;;;5053633;28;20470;-76
2022/08/26 05:56:16;;;;;;;10.13;3.20;;;;;;;;;;5059125;28;20067;-76
2022/08/26 05:58:42;;;;;;;9.35;3.38;;;;;;;;;;5048577;28;20462;-76
2022/08/26 06:01:11;;;;;;;8.20;2.70;;;;;;;;;;5050684;28;20091;-76
2022/08/26 06:03:38;;;;;;;10.38;3.10;;;;;;;;;;5061706;28;20049;-76
2022/08/26 06:06:06;;;;;;;8.00;3.83;;;;;;;;;;5056112;28;20029;-76
2022/08/26 06:08:32;;;;;;;7.25;3.30;;;;;;;;;;5059050;28;20029;-76
2022/08/26 06:11:03;;;;;;;9.68;3.63;;;;;;;;;;5050968;28;20045;-76
2022/08/26 06:13:29;;;;;;;7.03;2.90;;;;;;;;;;5051956;28;20036;-76
2022/08/26 06:15:56;;;;;;;8.35;3.10;;;;;;;;;;5057474;28;20072;-76
2022/08/26 06:18:29;;;;;;;11.07;3.63;;;;;;;;;;5050917;28;20032;-76
2022/08/26 06:20:55;;;;;;;9.63;2.92;;;;;;;;;;5060102;28;20052;-77
2022/08/26 06:26:06;;;;;;;7.35;2.67;;;;;;;;;;5054253;28;20039;-77
2022/08/26 06:28:32;;;;;;;5.18;2.33;;;;;;;;;;5058412;28;20060;-77
2022/08/26 06:30:58;;;;;;;7.32;2.50;;;;;;;;;;5055587;28;20037;-76
2022/08/26 06:33:27;;;;;;;7.60;2.63;;;;;;;;;;5060654;28;20063;-76
2022/08/26 06:35:53;;;;;;;8.73;2.55;;;;;;;;;;5053368;28;20037;-76
2022/08/26 06:38:20;;;;;;;7.60;2.35;;;;;;;;;;5051648;28;20024;-77
2022/08/26 06:40:47;;;;;;;7.30;3.28;;;;;;;;;;5052763;28;20053;-76
2022/08/26 06:43:14;;;;;;;6.82;2.80;;;;;;;;;;5056868;28;20028;-77
2022/08/26 06:45:40;;;;;;;8.30;2.75;;;;;;;;;;5053337;28;20041;-77
2022/08/26 06:48:06;;;;;;;8.43;2.50;;;;;;;;;;5055885;28;20026;-76
2022/08/26 06:50:33;;;;;;;7.93;2.50;;;;;;;;;;5058577;28;20040;-77
2022/08/26 06:52:59;;;;;;;4.97;2.30;;;;;;;;;;5053600;28;20043;-77
2022/08/26 06:55:25;;;;;;;5.00;2.30;;;;;;;;;;5058084;28;20051;-76
2022/08/26 06:57:51;;;;;;;5.05;2.65;;;;;;;;;;5053441;28;20033;-77
2022/08/26 07:00:17;;;;;;;8.10;2.83;;;;;;;;;;5058163;28;20429;-77
2022/08/26 07:02:43;;;;;;;7.35;2.75;;;;;;;;;;5056911;28;20131;-77
2022/08/26 07:05:10;;;;;;;4.60;2.30;;;;;;;;;;5053420;28;20052;-77
2022/08/26 07:07:37;;;;;;;9.35;2.53;;;;;;;;;;5053582;28;20025;-77
2022/08/26 07:10:03;;;;;;;11.50;2.78;;;;;;;;;;5054010;28;20036;-77
2022/08/26 07:12:29;;;;;;;7.85;2.75;;;;;;;;;;5050004;28;20154;-77
2022/08/26 07:14:55;;;;;;;9.18;2.97;;;;;;;;;;5054791;28;20837;-76
2022/08/26 07:17:21;;;;;;;15.45;3.25;;;;;;;;;;5050390;28;20204;-77
2022/08/26 07:19:47;;;;;;;7.00;2.60;;;;;;;;;;5052736;28;21087;-77
2022/08/26 07:22:15;;;;;;;14.38;2.88;;;;;;;;;;5049166;28;20036;-77
2022/08/26 07:24:41;;;;;;;11.63;3.45;;;;;;;;;;5055536;28;20032;-76
2022/08/26 07:27:09;;;;;;;10.48;3.10;;;;;;;;;;5058050;28;20056;-77
2022/08/26 07:29:36;;;;;;;10.52;2.97;;;;;;;;;;5055335;28;20082;-77
2022/08/26 07:32:03;;;;;;;8.50;2.25;;;;;;;;;;5060047;28;20032;-78
2022/08/26 07:34:30;;;;;;;10.35;2.72;;;;;;;;;;5051841;28;20634;-77
2022/08/26 07:36:57;;;;;;;7.05;2.53;;;;;;;;;;5051318;28;20021;-77
2022/08/26 07:39:23;;;;;;;6.22;2.45;;;;;;;;;;5050866;28;20028;-77
2022/08/26 07:41:49;;;;;;;10.73;2.08;;;;;;;;;;5059276;28;20051;-78
2022/08/26 07:44:15;;;;;;;8.27;2.33;;;;;;;;;;5055312;28;20025;-77
2022/08/26 07:46:42;;;;;;;7.78;1.95;;;;;;;;;;5056292;28;20024;-77
2022/08/26 07:49:08;;;;;;;9.40;2.28;;;;;;;;;;5062743;28;20467;-77
2022/08/26 07:51:34;;;;;;;8.23;2.40;;;;;;;;;;5063095;28;20040;-77
2022/08/26 07:54:00;;;;;;;7.10;2.08;;;;;;;;;;5061817;28;20095;-77
2022/08/26 07:56:26;;;;;;;6.20;2.00;;;;;;;;;;5058034;28;20036;-77
2022/08/26 07:58:52;;;;;;;9.73;2.22;;;;;;;;;;5055866;28;20033;-77
2022/08/26 08:01:22;;;;;;;8.45;2.22;;;;;;;;;;5056918;28;20572;-77
2022/08/26 08:03:52;;;;;;;4.13;1.63;;;;;;;;;;5053398;28;20107;-77
2022/08/26 08:06:22;;;;;;;10.90;2.30;;;;;;;;;;5061777;28;20075;-77
2022/08/26 08:08:49;;;;;;;9.50;2.10;;;;;;;;;;5062460;28;20029;-77
2022/08/26 08:11:16;;;;;;;5.10;2.15;;;;;;;;;;5061068;28;20028;-77
2022/08/26 08:56:03;;;;;;;7.55;1.88;;;;;;;;;;5793697;22;20064;-86
2022/08/26 08:58:50;;;;;;;3.90;1.23;;;;;;;;;;4972959;28;20045;-87
2022/08/26 09:01:38;;;;;;;6.32;1.10;;;;;;;;;;5007384;28;20115;-88
2022/08/26 09:04:16;;;;;;;5.18;1.15;;;;;;;;;;4989721;28;20037;-88
2022/08/26 09:06:42;;;;;;;7.53;1.50;;;;;;;;;;5008065;28;20061;-88
2022/08/26 09:09:13;;;;;;;6.15;1.38;;;;;;;;;;5006183;28;20030;-88
2022/08/26 09:11:39;;;;;;;5.95;1.20;;;;;;;;;;5006850;28;20053;-88
2022/08/26 09:14:05;;;;;;;4.28;1.58;;;;;;;;;;5011969;28;20120;-90
2022/08/26 09:16:59;;;;;;;3.88;1.58;;;;;;;;;;5011406;28;20037;-88
2022/08/26 09:21:57;;;;;;;7.13;1.40;;;;;;;;;;5027239;28;20064;-79
2022/08/26 09:24:24;;;;;;;6.15;1.40;;;;;;;;;;5019059;28;20030;-79
2022/08/26 09:26:51;;;;;;;6.68;1.67;;;;;;;;;;5017463;28;20026;-79
2022/08/26 09:29:28;;;;;;;7.28;1.60;;;;;;;;;;5020770;28;20068;-79
2022/08/26 09:32:15;;;;;;;4.22;1.35;;;;;;;;;;5019966;28;20037;-78
2022/08/26 09:34:53;;;;;;;4.93;1.38;;;;;;;;;;5005178;28;20049;-79
2022/08/26 09:37:32;;;;;;;4.88;1.70;;;;;;;;;;5020416;28;20060;-79
2022/08/26 09:42:32;;;;;;;5.78;1.85;;;;;;;;;;4976304;28;20097;-78
2022/08/26 09:47:34;;;;;;;4.15;1.40;;;;;;;;;;5024253;28;20053;-78
2022/08/26 09:50:10;;;;;;;6.28;1.88;;;;;;;;;;5027629;28;20080;-78
2022/08/26 09:52:36;;;;;;;3.90;1.92;;;;;;;;;;5025664;28;20040;-78
2022/08/26 09:55:10;;;;;;;7.95;2.03;;;;;;;;;;5026650;28;20061;-78
2022/08/26 09:57:45;;;;;;;4.63;1.60;;;;;;;;;;5023150;28;20022;-78
2022/08/26 10:00:32;;;;;;;4.10;1.42;;;;;;;;;;5024682;28;20120;-79
2022/08/26 10:03:02;;;;;;;5.10;1.67;;;;;;;;;;5024235;28;20025;-78
2022/08/26 10:05:30;;;;;;;3.90;1.58;;;;;;;;;;5029586;28;20122;-78
2022/08/26 10:07:57;;;;;;;4.22;1.58;;;;;;;;;;5030604;28;20078;-78
2022/08/26 10:10:29;;;;;;;3.33;1.10;;;;;;;;;;5021686;28;20145;-78
2022/08/26 10:13:05;;;;;;;9.65;1.83;;;;;;;;;;5023850;28;20115;-78
2022/08/26 10:15:35;;;;;;;6.40;1.50;;;;;;;;;;5022007;28;20048;-79
2022/08/26 10:18:09;;;;;;;8.23;1.67;;;;;;;;;;5024574;28;20503;-79
2022/08/26 10:20:37;;;;;;;4.25;1.40;;;;;;;;;;5026752;28;20057;-79
2022/08/26 10:23:23;;;;;;;4.72;1.92;;;;;;;;;;5028570;28;20136;-79
2022/08/26 10:26:04;;;;;;;2.40;1.17;;;;;;;;;;5028239;28;20034;-79
2022/08/26 10:28:33;;;;;;;4.28;1.40;;;;;;;;;;5025018;28;20028;-80
2022/08/26 10:31:15;;;;;;;2.35;1.02;;;;;;;;;;5027376;28;20103;-79
2022/08/26 10:33:41;;;;;;;;;;;;;;;;;;5028484;28;20501;-78
2022/08/26 10:36:47;;;;;;;4.88;1.60;;;;;;;;;;5030454;28;19928;-79
2022/08/26 10:38:58;;;;;;;5.45;1.15;;;;;;;;;;5028778;28;20044;-79
2022/08/26 10:41:26;;;;;;;3.50;1.10;;;;;;;;;;5027695;28;20037;-79
2022/08/26 10:43:56;;;;;;;3.70;1.30;;;;;;;;;;5028402;28;20029;-79
2022/08/26 10:46:23;;;;;;;5.00;1.40;;;;;;;;;;5031243;28;20049;-79
2022/08/26 10:48:54;;;;;;;2.90;1.25;;;;;;;;;;5025472;28;20029;-79
2022/08/26 10:51:24;;;;;;;4.63;1.52;;;;;;;;;;5028162;28;20117;-79
2022/08/26 10:53:56;;;;;;;5.70;1.23;;;;;;;;;;5024396;28;20117;-79
2022/08/26 10:56:34;;;;;;;5.18;1.42;;;;;;;;;;5021423;28;20059;-79
2022/08/26 10:59:09;;;;;;;3.22;1.30;;;;;;;;;;5026213;28;20033;-79
2022/08/26 11:01:45;;;;;;;3.28;1.42;;;;;;;;;;5030978;28;20060;-79
2022/08/26 11:04:20;;;;;;;4.40;1.50;;;;;;;;;;5028276;28;20973;-79
2022/08/26 11:06:46;;;;;;;5.50;1.60;;;;;;;;;;5027235;28;20025;-79
2022/08/26 11:09:32;;;;;;;5.60;1.45;;;;;;;;;;5032964;28;20033;-79
2022/08/26 11:11:59;;;;;;;4.72;1.75;;;;;;;;;;5024973;28;20053;-79
2022/08/26 11:14:32;;;;;;;3.00;1.80;;;;;;;;;;5026165;28;20036;-80
2022/08/26 11:16:58;;;;;;;3.97;2.00;;;;;;;;;;5022409;28;20048;-79
2022/08/26 11:19:31;;;;;;;3.85;1.75;;;;;;;;;;5026032;28;20033;-79
2022/08/26 11:22:11;;;;;;;3.35;1.70;;;;;;;;;;5026871;28;20036;-79
2022/08/26 11:24:52;;;;;;;3.28;1.60;;;;;;;;;;5028252;28;20048;-79
2022/08/26 11:27:27;;;;;;;6.63;1.73;;;;;;;;;;5027045;28;20033;-79
2022/08/26 11:29:56;;;;;;;4.32;2.00;;;;;;;;;;5026471;28;20030;-79
2022/08/26 11:32:34;;;;;;;3.50;1.60;;;;;;;;;;5029902;28;20025;-79
2022/08/26 11:35:03;;;;;;;3.92;1.40;;;;;;;;;;5026014;28;20470;-79
2022/08/26 11:37:32;;;;;;;3.42;1.73;;;;;;;;;;5027243;28;20045;-79
2022/08/26 11:39:58;;;;;;;3.17;1.40;;;;;;;;;;5021155;28;20037;-79
2022/08/26 11:42:24;;;;;;;4.70;1.23;;;;;;;;;;5030412;28;20106;-79
2022/08/26 11:44:50;;;;;;;3.33;1.23;;;;;;;;;;5031535;28;20065;-79
2022/08/26 11:47:24;;;;;;;3.60;1.75;;;;;;;;;;5029171;28;20042;-79
2022/08/26 11:49:50;;;;;;;4.35;1.73;;;;;;;;;;5026917;28;20041;-79
2022/08/26 11:52:18;;;;;;;5.50;2.08;;;;;;;;;;5027261;28;20033;-80
2022/08/26 11:55:00;;;;;;;3.47;1.60;;;;;;;;;;5037138;28;20143;-79
2022/08/26 11:57:27;;;;;;;2.88;1.30;;;;;;;;;;5030081;28;20026;-79
2022/08/26 11:59:53;;;;;;;2.67;1.52;;;;;;;;;;5030916;28;20037;-79
2022/08/26 12:02:19;;;;;;;3.28;1.42;;;;;;;;;;5030253;28;20032;-79
2022/08/26 12:04:49;;;;;;;6.20;1.58;;;;;;;;;;5036002;28;20033;-80
2022/08/26 12:07:15;;;;;;;4.40;1.60;;;;;;;;;;5030121;28;20029;-79
2022/08/26 12:09:56;;;;;;;4.13;1.73;;;;;;;;;;5028443;28;20057;-80
2022/08/26 12:12:32;;;;;;;3.47;1.50;;;;;;;;;;5031948;28;20022;-80
2022/08/26 12:15:07;;;;;;;4.97;1.35;;;;;;;;;;5029399;28;20076;-80
2022/08/26 12:17:34;;;;;;;4.10;1.60;;;;;;;;;;5024422;28;20033;-78
2022/08/26 12:20:00;;;;;;;4.03;1.33;;;;;;;;;;5030558;28;20541;-77
2022/08/26 12:22:27;;;;;;;7.20;1.33;;;;;;;;;;5027509;28;20091;-77
2022/08/26 12:24:59;;;;;;;6.40;1.80;;;;;;;;;;5022786;28;20037;-80
2022/08/26 12:27:27;;;;;;;3.97;1.35;;;;;;;;;;5026639;28;20040;-77
2022/08/26 12:30:13;;;;;;;6.05;1.70;;;;;;;;;;5027094;28;20061;-80
2022/08/26 12:32:47;;;;;;;4.18;1.55;;;;;;;;;;5026635;28;20033;-79
2022/08/26 12:35:15;;;;;;;3.58;1.20;;;;;;;;;;5029899;28;20033;-79
2022/08/26 12:37:42;;;;;;;3.72;1.52;;;;;;;;;;5027735;28;20022;-79
2022/08/26 12:40:26;;;;;;;5.13;1.77;;;;;;;;;;5029010;28;20478;-79
2022/08/26 12:42:52;;;;;;;4.82;1.60;;;;;;;;;;5026665;28;20108;-79
2022/08/26 12:45:32;;;;;;;3.38;1.67;;;;;;;;;;5030123;28;20045;-79
2022/08/26 12:48:00;;;;;;;3.75;1.50;;;;;;;;;;4989796;28;20069;-79
2022/08/26 12:50:26;;;;;;;4.50;1.40;;;;;;;;;;4992532;28;20422;-79
2022/08/26 12:53:00;;;;;;;4.88;1.40;;;;;;;;;;4986181;28;20515;-79
2022/08/26 12:55:34;;;;;;;9.38;1.70;;;;;;;;;;4993726;28;20038;-79
2022/08/26 12:58:15;;;;;;;2.60;1.30;;;;;;;;;;4996988;28;20040;-79
2022/08/26 13:00:55;;;;;;;4.10;1.35;;;;;;;;;;4990491;28;20030;-79
2022/08/26 13:03:27;;;;;;;4.07;1.63;;;;;;;;;;4992092;28;20105;-79
2022/08/26 13:05:53;;;;;;;2.42;1.23;;;;;;;;;;4990281;28;20039;-79
2022/08/26 13:08:26;;;;;;;5.03;1.58;;;;;;;;;;4991118;28;20057;-79
2022/08/26 13:11:09;;;;;;;2.88;1.40;;;;;;;;;;4986130;28;20065;-79
2022/08/26 13:13:36;;;;;;;6.25;1.33;;;;;;;;;;4990611;28;20048;-80
2022/08/26 13:16:02;;;;;;;2.35;1.10;;;;;;;;;;4987390;28;20044;-79
2022/08/26 13:18:28;;;;;;;5.72;1.35;;;;;;;;;;4980301;28;20450;-79
2022/08/26 13:20:55;;;;;;;3.78;1.30;;;;;;;;;;4988828;28;20533;-80
2022/08/26 13:23:22;;;;;;;2.85;1.10;;;;;;;;;;4992729;28;20073;-79
2022/08/26 13:25:48;;;;;;;4.07;1.30;;;;;;;;;;4988277;28;20038;-80
2022/08/26 13:28:14;;;;;;;5.90;1.35;;;;;;;;;;4994051;28;20028;-79
2022/08/26 13:30:42;;;;;;;6.22;1.35;;;;;;;;;;4986826;28;20033;-79
2022/08/26 13:33:08;;;;;;;3.92;1.30;;;;;;;;;;4988843;28;20062;-79
2022/08/26 13:35:34;;;;;;;3.95;1.42;;;;;;;;;;4990160;28;20482;-79
2022/08/26 13:38:00;;;;;;;4.72;1.50;;;;;;;;;;4985827;28;20044;-79
2022/08/26 13:40:26;;;;;;;3.15;1.00;;;;;;;;;;4990040;28;20046;-80
2022/08/26 13:42:52;;;;;;;5.57;1.63;;;;;;;;;;4992833;28;20533;-79
2022/08/26 13:45:19;;;;;;;6.00;1.35;;;;;;;;;;4990574;28;20081;-79
2022/08/26 13:47:45;;;;;;;3.08;1.48;;;;;;;;;;5012675;28;20052;-79
2022/08/26 13:50:11;;;;;;;4.35;1.50;;;;;;;;;;5013596;28;20069;-79
2022/08/26 13:52:37;;;;;;;3.42;1.40;;;;;;;;;;5016089;28;20062;-79
2022/08/26 13:55:03;;;;;;;3.20;1.42;;;;;;;;;;5010839;28;20611;-79
2022/08/26 13:57:29;;;;;;;4.70;1.70;;;;;;;;;;5009592;28;20026;-79
2022/08/26 13:59:57;;;;;;;4.07;1.80;;;;;;;;;;5009496;28;20061;-79
2022/08/26 14:02:24;;;;;;;4.10;1.98;;;;;;;;;;5003818;28;20026;-78
2022/08/26 14:04:50;;;;;;;4.78;1.88;;;;;;;;;;5008335;28;20426;-79
2022/08/26 14:07:16;;;;;;;5.50;1.48;;;;;;;;;;5008586;28;20121;-79
2022/08/26 14:09:42;;;;;;;3.67;1.60;;;;;;;;;;5008740;28;20034;-79
2022/08/26 14:12:08;;;;;;;6.68;1.50;;;;;;;;;;5007455;28;20088;-78
2022/08/26 14:14:34;;;;;;;3.55;1.38;;;;;;;;;;5006785;28;20061;-79
2022/08/26 14:17:00;;;;;;;4.90;1.35;;;;;;;;;;5005801;28;20072;-79
2022/08/26 14:19:28;;;;;;;2.53;1.25;;;;;;;;;;5006449;28;20140;-79
2022/08/26 14:21:55;;;;;;;3.72;1.40;;;;;;;;;;5012605;28;20037;-79
2022/08/26 14:24:21;;;;;;;5.28;1.70;;;;;;;;;;5005955;28;20053;-79
2022/08/26 14:26:47;;;;;;;5.53;1.98;;;;;;;;;;5000652;28;20034;-79
2022/08/26 14:29:13;;;;;;;4.93;1.98;;;;;;;;;;5010468;28;20421;-79
2022/08/26 14:31:39;;;;;;;4.13;1.70;;;;;;;;;;5008597;28;20144;-79
2022/08/26 14:34:06;;;;;;;3.50;1.40;;;;;;;;;;5007129;28;20041;-79
2022/08/26 14:36:32;;;;;;;4.90;1.60;;;;;;;;;;5007131;28;20050;-79
2022/08/26 14:39:00;;;;;;;3.88;1.40;;;;;;;;;;5003534;28;20100;-79
2022/08/26 14:41:27;;;;;;;9.50;1.92;;;;;;;;;;4998778;28;20097;-79
2022/08/26 14:43:58;;;;;;;5.20;1.70;;;;;;;;;;5005424;28;20034;-79
2022/08/26 14:46:27;;;;;;;5.05;1.88;;;;;;;;;;5011878;28;20041;-79
2022/08/26 14:48:53;;;;;;;6.57;1.90;;;;;;;;;;5028777;28;20482;-80
2022/08/26 14:51:20;;;;;;;4.00;1.73;;;;;;;;;;5028334;28;20564;-80
2022/08/26 14:56:32;;;;;;;5.97;1.95;;;;;;;;;;5036586;28;20126;-80
2022/08/26 14:58:58;;;;;;;9.43;2.13;;;;;;;;;;5034313;28;20033;-80
2022/08/26 15:01:24;;;;;;;7.03;1.98;;;;;;;;;;5034439;28;20095;-79
2022/08/26 15:03:51;;;;;;;4.00;1.77;;;;;;;;;;5036276;28;20021;-80
2022/08/26 15:06:17;;;;;;;5.35;2.03;;;;;;;;;;5038349;28;20036;-78
2022/08/26 15:08:43;;;;;;;4.30;2.13;;;;;;;;;;5024295;28;20061;-78
2022/08/26 15:11:10;;;;;;;4.57;2.65;;;;;;;;;;5023308;28;20038;-78
2022/08/26 15:13:36;;;;;;;5.03;2.35;;;;;;;;;;5030891;28;20049;-78
2022/08/26 15:16:02;;;;;;;4.43;2.10;;;;;;;;;;5026068;28;20037;-78
2022/08/26 15:18:28;;;;;;;6.72;2.40;;;;;;;;;;5026821;28;20061;-78
2022/08/26 15:20:54;;;;;;;4.25;2.45;;;;;;;;;;5021188;28;20073;-78
2022/08/26 15:23:20;;;;;;;4.55;2.55;;;;;;;;;;5027065;28;20818;-78
2022/08/26 15:25:47;;;;;;;11.23;2.50;;;;;;;;;;5028769;28;20044;-78
2022/08/26 15:28:13;;;;;;;6.25;2.90;;;;;;;;;;5025123;28;20021;-78
2022/08/26 15:30:39;;;;;;;7.35;2.25;;;;;;;;;;5021053;28;20366;-78
2022/08/26 15:33:05;;;;;;;3.88;2.50;;;;;;;;;;5031610;28;20029;-78
2022/08/26 15:35:31;;;;;;;6.22;2.90;;;;;;;;;;5025707;28;20048;-78
2022/08/26 15:37:57;;;;;;;4.07;2.28;;;;;;;;;;5022340;28;20120;-77
2022/08/26 15:40:25;;;;;;;4.78;2.40;;;;;;;;;;5024339;28;20048;-78
2022/08/26 15:42:51;;;;;;;5.05;2.58;;;;;;;;;;5024486;28;20124;-78
2022/08/26 15:45:17;;;;;;;7.35;2.80;;;;;;;;;;5025272;28;20496;-78
2022/08/26 15:47:43;;;;;;;5.15;2.72;;;;;;;;;;5025017;28;20045;-78